createdAt,value
2022-11-13T15:27:50.063Z,26.47
2022-11-13T19:05:15.978Z,46.30
2022-11-13T19:08:16.113Z,45.77
2022-11-13T19:11:14.721Z,44.47
2022-11-13T19:14:19.850Z,46.60
2022-11-13T19:17:22.785Z,48.30
2022-11-13T19:20:26.753Z,50.60
2022-11-13T19:23:31.041Z,45.90
2022-11-13T19:26:39.477Z,48.40
2022-11-13T19:29:32.147Z,49.57
2022-11-13T19:32:29.386Z,43.33
2022-11-13T19:35:37.264Z,43.23
2022-11-13T19:38:30.594Z,47.47
2022-11-13T19:41:46.638Z,45.40
2022-11-13T19:44:42.947Z,49.17
2022-11-13T19:50:42.697Z,52.17
2022-11-13T19:53:37.130Z,45.17
2022-11-13T19:57:07.104Z,44.60
2022-11-13T19:59:58.125Z,47.70
2022-11-13T20:03:01.586Z,44.67
2022-11-13T20:06:08.121Z,53.63
2022-11-13T20:09:03.178Z,51.83
2022-11-13T20:12:12.087Z,54.57
2022-11-13T20:15:18.621Z,55.23
2022-11-13T20:18:15.489Z,49.13
2022-11-13T20:21:30.456Z,55.10
2022-11-13T20:24:30.791Z,52.47
2022-11-13T20:27:26.303Z,45.10
2022-11-13T20:30:16.778Z,53.47
2022-11-13T20:33:18.434Z,49.43
2022-11-13T20:36:47.681Z,53.07
2022-11-13T20:39:44.809Z,50.50
2022-11-13T20:42:45.394Z,50.80
2022-11-13T20:45:45.851Z,53.27
2022-11-13T20:48:47.723Z,55.53
2022-11-13T20:51:54.629Z,50.33
2022-11-13T20:54:55.637Z,49.60
2022-11-13T20:57:57.715Z,59.80
2022-11-13T21:01:08.306Z,51.13
2022-11-13T21:04:03.507Z,50.37
2022-11-13T21:07:05.200Z,53.90
2022-11-13T21:10:02.491Z,53.13
2022-11-13T21:13:04.400Z,63.27
2022-11-13T21:15:59.792Z,55.70
2022-11-13T21:18:55.674Z,63.87
2022-11-13T21:21:54.211Z,66.87
2022-11-13T21:24:56.193Z,63.93
2022-11-13T21:28:07.985Z,64.17
2022-11-13T21:31:13.851Z,67.87
2022-11-13T21:34:15.168Z,60.03
2022-11-13T21:37:12.326Z,60.83
2022-11-13T21:40:17.877Z,68.03
2022-11-13T21:43:16.079Z,61.97
2022-11-13T21:46:16.276Z,69.63
2022-11-13T21:49:10.327Z,60.70
2022-11-13T21:52:10.283Z,62.20
2022-11-13T21:55:09.702Z,72.63
2022-11-13T21:58:13.950Z,64.80
2022-11-13T22:01:18.326Z,83.73
2022-11-13T22:04:29.553Z,75.40
2022-11-13T22:07:31.240Z,82.27
2022-11-13T22:10:40.123Z,95.47
2022-11-13T22:13:52.243Z,87.43
2022-11-13T22:16:56.873Z,89.90
2022-11-13T22:19:53.841Z,98.03
2022-11-13T22:22:55.827Z,96.57
2022-11-13T22:26:01.866Z,107.77
2022-11-13T22:28:59.383Z,98.47
2022-11-13T22:32:00.303Z,96.40
2022-11-13T22:34:57.389Z,99.63
2022-11-13T22:38:04.131Z,91.53
2022-11-13T22:41:23.994Z,105.73
2022-11-13T22:44:35.109Z,101.47
2022-11-13T22:47:49.019Z,114.37
2022-11-13T22:51:06.394Z,107.93
2022-11-13T22:54:11.136Z,105.57
2022-11-13T22:57:20.770Z,111.17
2022-11-13T23:00:20.188Z,101.70
2022-11-13T23:03:28.274Z,118.57
2022-11-13T23:06:33.250Z,118.83
2022-11-13T23:09:31.688Z,101.53
2022-11-13T23:12:36.486Z,122.23
2022-11-13T23:15:34.672Z,110.17
2022-11-13T23:18:39.987Z,105.93
2022-11-13T23:21:43.349Z,117.47
2022-11-13T23:24:43.243Z,107.33
2022-11-13T23:27:48.514Z,109.53
2022-11-13T23:30:50.172Z,109.07
2022-11-13T23:33:43.969Z,127.17
2022-11-13T23:36:51.801Z,106.80
2022-11-13T23:39:52.395Z,115.73
2022-11-13T23:42:55.957Z,116.10
2022-11-13T23:45:50.143Z,111.80
2022-11-13T23:48:54.195Z,122.90
2022-11-13T23:51:51.145Z,118.50
2022-11-13T23:54:48.854Z,114.13
2022-11-13T23:57:45.334Z,127.93
